Time;durP1;ratioP1;P1;durP2;ratioP2;P2;SDS_P1;SDS_P2;PMS_P1;PMS_P2;Temp;Humidity;BMP_temperature;BMP_pressure;BME280_temperature;BME280_humidity;BME280_pressure;Samples;Min_cycle;Max_cycle;Signal;HPM_P1;HPM_P2
2021/03/28 00:00:59;;;;;;;14.27;4.37;;;4.90;99.90;;;;;;4992654;28;20716;-57
2021/03/28 00:03:35;;;;;;;17.37;4.40;;;4.90;99.90;;;;;;4980919;28;20564;-57
2021/03/28 00:06:18;;;;;;;14.13;3.70;;;4.90;99.90;;;;;;4995977;28;20503;-54
2021/03/28 00:08:49;;;;;;;14.57;4.07;;;4.90;99.90;;;;;;4995162;28;20608;-56
2021/03/28 00:11:22;;;;;;;15.53;4.13;;;5.00;99.90;;;;;;4994459;28;21010;-55
2021/03/28 00:13:55;;;;;;;19.27;4.20;;;5.00;99.90;;;;;;5002185;28;20479;-57
2021/03/28 00:16:27;;;;;;;16.80;4.27;;;4.90;99.90;;;;;;5010817;28;20488;-54
2021/03/28 00:19:10;;;;;;;14.77;3.73;;;4.90;99.90;;;;;;4994712;28;20494;-55
2021/03/28 00:21:49;;;;;;;15.73;4.13;;;5.00;99.90;;;;;;4995145;28;20491;-55
2021/03/28 00:24:23;;;;;;;12.53;4.10;;;4.90;99.90;;;;;;4992126;28;20542;-57
2021/03/28 00:27:16;;;;;;;20.30;4.20;;;5.00;99.90;;;;;;4986634;28;20297;-56
2021/03/28 00:29:50;;;;;;;16.97;4.40;;;5.00;99.90;;;;;;4984438;28;20536;-57
2021/03/28 00:32:23;;;;;;;14.37;3.57;;;4.90;99.90;;;;;;5000615;28;20504;-56
2021/03/28 00:34:54;;;;;;;15.20;4.07;;;4.90;99.90;;;;;;4993396;28;20469;-56
2021/03/28 00:37:27;;;;;;;20.23;4.00;;;4.90;99.90;;;;;;4987592;28;20245;-57
2021/03/28 00:39:58;;;;;;;12.73;3.93;;;4.90;99.90;;;;;;4987250;28;21164;-54
2021/03/28 00:42:34;;;;;;;25.10;6.00;;;4.90;99.90;;;;;;4995335;28;21017;-57
2021/03/28 00:45:19;;;;;;;19.30;4.90;;;4.80;99.90;;;;;;4997185;28;20480;-56
2021/03/28 00:48:06;;;;;;;18.33;5.23;;;4.80;99.90;;;;;;5022383;28;20513;-56
2021/03/28 00:50:38;;;;;;;14.17;4.30;;;4.80;99.90;;;;;;5006295;28;20224;-56
2021/03/28 00:53:11;;;;;;;17.07;4.30;;;4.80;99.90;;;;;;5008191;28;20536;-56
2021/03/28 00:56:00;;;;;;;15.80;4.63;;;4.80;99.90;;;;;;4985106;28;20245;-56
2021/03/28 00:58:52;;;;;;;19.53;4.40;;;4.80;99.90;;;;;;4998375;28;20469;-55
2021/03/28 01:02:15;;;;;;;16.80;4.77;;;4.90;99.90;;;;;;5008310;28;20516;-57
2021/03/28 01:05:29;;;;;;;14.43;4.57;;;4.80;99.90;;;;;;5010284;28;20545;-57
2021/03/28 01:08:06;;;;;;;16.47;4.90;;;4.80;99.90;;;;;;4997935;28;20487;-57
2021/03/28 01:11:12;;;;;;;18.07;4.47;;;4.70;99.90;;;;;;4998310;28;20550;-57
2021/03/28 01:14:41;;;;;;;19.03;4.70;;;4.70;99.90;;;;;;5010391;28;20479;-56
2021/03/28 01:17:33;;;;;;;15.73;4.73;;;4.80;99.90;;;;;;4989593;28;20496;-55
2021/03/28 01:20:36;;;;;;;19.33;4.90;;;4.70;99.90;;;;;;4989926;28;20810;-57
2021/03/28 01:23:19;;;;;;;19.33;4.90;;;4.70;99.90;;;;;;4990481;28;20561;-57
2021/03/28 01:26:15;;;;;;;18.77;4.33;;;4.70;99.90;;;;;;4986642;28;20876;-55
2021/03/28 01:28:50;;;;;;;21.47;4.93;;;4.70;99.90;;;;;;4978393;28;20905;-55
2021/03/28 01:31:42;;;;;;;15.77;4.50;;;4.70;99.90;;;;;;3775975;28;10024542;-57
2021/03/28 01:34:22;;;;;;;12.63;4.30;;;4.70;99.90;;;;;;3787366;28;10001980;-55
2021/03/28 01:37:03;;;;;;;19.00;4.67;;;4.70;99.90;;;;;;4990990;28;20486;-54
2021/03/28 01:39:43;;;;;;;15.90;3.97;;;4.70;99.90;;;;;;4990421;28;20486;-56
2021/03/28 01:42:28;;;;;;;19.20;4.63;;;4.70;99.90;;;;;;4989872;28;20562;-53
2021/03/28 01:45:11;;;;;;;17.47;4.90;;;4.70;99.90;;;;;;4990646;28;20284;-56
2021/03/28 01:47:52;;;;;;;16.30;4.10;;;4.70;99.90;;;;;;4990295;28;20769;-56
2021/03/28 01:50:50;;;;;;;14.43;4.47;;;4.70;99.90;;;;;;4993866;28;20264;-57
2021/03/28 01:53:37;;;;;;;16.73;4.40;;;4.60;99.90;;;;;;4981579;28;20477;-55
2021/03/28 01:56:11;;;;;;;17.00;4.03;;;4.60;99.90;;;;;;5000565;28;20236;-57
2021/03/28 01:58:54;;;;;;;14.07;4.07;;;4.60;99.90;;;;;;5005737;28;20956;-57
2021/03/28 02:01:27;;;;;;;16.17;4.27;;;4.70;99.90;;;;;;5024043;28;20483;-55
2021/03/28 02:04:04;;;;;;;16.83;4.80;;;4.60;99.90;;;;;;5029710;28;20877;-56
2021/03/28 02:06:52;;;;;;;15.83;4.33;;;4.60;99.90;;;;;;5029341;28;20834;-55
2021/03/28 02:09:41;;;;;;;11.97;4.37;;;4.60;99.90;;;;;;5028722;28;20264;-56
2021/03/28 02:12:13;;;;;;;16.43;4.43;;;4.60;99.90;;;;;;5027793;28;20487;-55
2021/03/28 02:15:19;;;;;;;22.13;4.63;;;4.60;99.90;;;;;;5029299;28;20880;-52
2021/03/28 02:17:57;;;;;;;15.30;4.40;;;4.60;99.90;;;;;;5029061;28;20483;-57
2021/03/28 02:20:43;;;;;;;15.00;4.07;;;4.60;99.90;;;;;;5028647;28;20478;-53
2021/03/28 02:23:30;;;;;;;9.53;4.20;;;4.60;99.90;;;;;;5006935;28;20515;-56
2021/03/28 02:26:07;;;;;;;15.07;4.27;;;4.60;99.90;;;;;;4976752;28;20244;-55
2021/03/28 02:28:56;;;;;;;15.20;4.33;;;4.60;99.90;;;;;;4978446;28;20702;-53
2021/03/28 02:31:32;;;;;;;18.57;5.03;;;4.60;99.90;;;;;;5011940;28;21066;-56
2021/03/28 02:34:14;;;;;;;17.53;4.77;;;4.60;99.90;;;;;;5009370;28;20479;-55
2021/03/28 02:36:47;;;;;;;16.10;5.00;;;4.60;99.90;;;;;;5009358;28;20491;-55
2021/03/28 02:39:24;;;;;;;12.10;4.03;;;4.60;99.90;;;;;;5008877;28;21021;-55
2021/03/28 02:42:09;;;;;;;11.67;4.10;;;4.50;99.90;;;;;;5009070;28;20259;-55
2021/03/28 02:45:00;;;;;;;13.27;3.83;;;4.60;99.90;;;;;;5008660;28;20834;-55
2021/03/28 02:48:00;;;;;;;13.57;4.70;;;4.60;99.90;;;;;;5009158;28;20476;-56
2021/03/28 02:51:25;;;;;;;16.33;4.30;;;4.60;99.90;;;;;;5006546;28;20233;-57
2021/03/28 02:54:16;;;;;;;17.27;4.43;;;4.60;99.90;;;;;;4987181;28;20461;-57
2021/03/28 02:57:19;;;;;;;16.27;4.00;;;4.60;99.90;;;;;;4977563;28;20488;-56
2021/03/28 03:00:04;;;;;;;13.20;4.90;;;4.60;99.90;;;;;;4934668;28;20490;-55
2021/03/28 03:03:14;;;;;;;16.23;4.23;;;4.60;99.90;;;;;;4985344;28;20477;-56
2021/03/28 03:06:06;;;;;;;13.43;4.27;;;4.50;99.90;;;;;;4992595;28;20503;-56
2021/03/28 03:08:40;;;;;;;20.23;5.47;;;4.60;99.90;;;;;;4968898;28;20478;-54
2021/03/28 03:11:40;;;;;;;14.33;4.37;;;4.50;99.90;;;;;;4968934;28;20476;-56
2021/03/28 03:14:25;;;;;;;14.87;4.10;;;4.60;99.90;;;;;;4969364;28;20510;-56
2021/03/28 03:17:55;;;;;;;14.40;4.27;;;4.60;99.90;;;;;;4972029;28;20723;-56
2021/03/28 03:20:39;;;;;;;16.77;4.50;;;4.60;99.90;;;;;;4985234;28;20761;-55
2021/03/28 03:23:49;;;;;;;13.37;3.50;;;4.70;99.90;;;;;;5000468;28;20536;-56
2021/03/28 03:26:58;;;;;;;19.77;4.77;;;4.60;99.90;;;;;;5004898;28;20533;-57
2021/03/28 03:30:09;;;;;;;14.07;4.37;;;4.60;99.90;;;;;;5005576;28;20559;-56
2021/03/28 03:33:13;;;;;;;15.65;5.13;;;4.60;99.90;;;;;;4980089;28;20456;-56
2021/03/28 03:35:57;;;;;;;15.97;5.03;;;4.60;99.90;;;;;;5005407;28;20244;-54
2021/03/28 03:39:15;;;;;;;19.03;4.63;;;4.60;99.90;;;;;;5008253;28;20596;-57
2021/03/28 03:42:16;;;;;;;14.40;4.40;;;4.60;99.90;;;;;;4929241;28;20519;-54
2021/03/28 03:45:34;;;;;;;14.33;4.57;;;4.60;99.90;;;;;;4969154;28;20492;-54
2021/03/28 03:48:15;;;;;;;17.23;4.90;;;4.60;99.90;;;;;;4974694;28;20493;-55
2021/03/28 03:51:25;;;;;;;13.73;4.63;;;4.60;99.90;;;;;;4983182;28;21007;-57
2021/03/28 03:54:02;;;;;;;18.07;4.33;;;4.60;99.90;;;;;;4983728;28;20543;-55
2021/03/28 03:56:48;;;;;;;16.07;4.40;;;4.70;99.90;;;;;;4988528;28;21088;-57
2021/03/28 03:59:33;;;;;;;13.37;3.90;;;4.70;99.90;;;;;;4987771;28;20481;-57
2021/03/28 04:02:06;;;;;;;15.53;4.33;;;4.70;99.90;;;;;;5003670;28;20486;-56
2021/03/28 04:04:50;;;;;;;11.07;4.30;;;4.70;99.90;;;;;;5007849;28;20476;-56
2021/03/28 04:07:57;;;;;;;15.60;4.30;;;4.80;99.90;;;;;;5008105;28;20534;-54
2021/03/28 04:10:34;;;;;;;13.33;4.13;;;4.80;99.90;;;;;;5007042;28;21017;-55
2021/03/28 04:13:29;;;;;;;11.20;4.07;;;4.80;99.90;;;;;;5007434;28;20260;-56
2021/03/28 04:16:16;;;;;;;11.70;4.13;;;4.80;99.90;;;;;;4989060;28;20924;-57
2021/03/28 04:19:07;;;;;;;10.63;4.30;;;4.80;99.90;;;;;;5006697;28;20501;-56
2021/03/28 04:22:25;;;;;;;15.20;4.30;;;4.80;99.90;;;;;;4985476;28;20490;-56
2021/03/28 04:25:05;;;;;;;14.53;4.50;;;4.80;99.90;;;;;;4942110;28;20491;-57
2021/03/28 04:27:52;;;;;;;13.13;4.33;;;4.80;99.90;;;;;;4968613;28;20981;-57
2021/03/28 04:30:44;;;;;;;11.07;4.40;;;4.80;99.90;;;;;;4985666;28;20996;-55
2021/03/28 04:33:28;;;;;;;16.00;4.33;;;4.80;99.90;;;;;;4988081;28;20567;-57
2021/03/28 04:36:11;;;;;;;11.93;4.50;;;4.80;99.90;;;;;;4989889;28;20875;-57
2021/03/28 04:39:06;;;;;;;14.93;4.60;;;4.80;99.90;;;;;;4991407;28;20946;-56
2021/03/28 04:42:17;;;;;;;14.77;4.33;;;4.80;99.90;;;;;;4991226;28;20248;-56
2021/03/28 04:45:20;;;;;;;14.60;4.37;;;4.80;99.90;;;;;;4990991;28;20489;-56
2021/03/28 04:48:33;;;;;;;16.90;4.27;;;4.80;99.90;;;;;;4987831;28;20472;-56
2021/03/28 04:51:30;;;;;;;13.57;4.30;;;4.80;99.90;;;;;;5013493;28;20466;-55
2021/03/28 04:54:34;;;;;;;17.53;5.00;;;4.80;99.90;;;;;;5015599;28;20475;-56
2021/03/28 04:57:33;;;;;;;12.07;4.43;;;4.80;99.90;;;;;;4996436;28;21014;-57
2021/03/28 05:00:31;;;;;;;12.43;4.47;;;4.80;99.90;;;;;;4990285;28;20242;-55
2021/03/28 05:03:37;;;;;;;13.30;4.43;;;4.80;99.90;;;;;;5010657;28;20233;-57
2021/03/28 05:06:45;;;;;;;16.03;4.47;;;4.80;99.90;;;;;;5010185;28;20255;-56
2021/03/28 05:09:34;;;;;;;15.63;4.37;;;4.80;99.90;;;;;;4989630;28;20234;-55
2021/03/28 05:12:58;;;;;;;15.17;4.20;;;4.80;99.90;;;;;;5010464;28;20483;-55
2021/03/28 05:16:07;;;;;;;13.67;4.37;;;4.90;99.90;;;;;;4949212;28;20526;-54
2021/03/28 05:19:27;;;;;;;13.77;4.30;;;4.90;99.90;;;;;;4992000;28;20598;-55
2021/03/28 05:22:39;;;;;;;14.93;4.10;;;4.80;99.90;;;;;;5017268;28;20593;-56
2021/03/28 05:25:32;;;;;;;12.10;4.23;;;4.90;99.90;;;;;;4989332;28;20531;-57
2021/03/28 05:28:48;;;;;;;14.23;4.37;;;4.90;99.90;;;;;;4986384;28;20518;-57
2021/03/28 05:32:19;;;;;;;14.40;3.93;;;4.90;99.90;;;;;;4988653;28;20477;-56
2021/03/28 05:35:44;;;;;;;11.90;3.93;;;4.90;99.90;;;;;;4951722;28;20881;-56
2021/03/28 05:38:49;;;;;;;17.13;4.97;;;4.80;99.90;;;;;;4995457;28;20512;-55
2021/03/28 05:42:04;;;;;;;12.63;3.80;;;4.90;99.90;;;;;;5000269;28;20530;-56
2021/03/28 05:45:36;;;;;;;10.70;3.80;;;5.00;99.90;;;;;;5007155;28;20559;-53
2021/03/28 05:48:50;;;;;;;15.50;4.30;;;5.00;99.90;;;;;;4944275;28;20514;-55
2021/03/28 05:51:48;;;;;;;13.70;3.63;;;4.90;99.90;;;;;;4998099;28;20503;-56
2021/03/28 05:55:01;;;;;;;12.47;4.10;;;5.00;99.90;;;;;;4999982;28;20832;-55
2021/03/28 05:58:11;;;;;;;12.77;4.13;;;5.00;99.90;;;;;;5000352;28;20469;-55
2021/03/28 06:01:00;;;;;;;15.40;4.80;;;5.10;99.90;;;;;;4977205;28;20476;-56
2021/03/28 06:04:20;;;;;;;13.00;3.33;;;5.10;99.90;;;;;;5003030;28;20903;-55
2021/03/28 06:08:00;;;;;;;14.53;4.70;;;5.20;99.90;;;;;;5009179;28;20544;-56
2021/03/28 06:11:22;;;;;;;14.53;4.07;;;5.20;99.90;;;;;;5008534;28;20478;-56
2021/03/28 06:14:40;;;;;;;11.07;4.00;;;5.30;99.90;;;;;;5008352;28;20246;-56
2021/03/28 06:17:27;;;;;;;13.50;3.90;;;5.30;99.90;;;;;;5000017;28;20265;-55
2021/03/28 06:20:49;;;;;;;9.33;3.47;;;5.30;99.90;;;;;;4989147;28;20234;-55
2021/03/28 06:23:54;;;;;;;14.07;4.77;;;5.40;99.90;;;;;;4978942;28;20492;-56
2021/03/28 06:27:23;;;;;;;15.27;4.33;;;5.40;99.90;;;;;;4994528;28;20296;-55
2021/03/28 06:30:39;;;;;;;9.73;3.80;;;5.40;99.90;;;;;;4990057;28;20482;-55
2021/03/28 06:33:45;;;;;;;12.10;4.07;;;5.40;99.90;;;;;;4999403;28;21244;-57
2021/03/28 06:37:04;;;;;;;13.03;4.80;;;5.40;99.90;;;;;;5000311;28;20378;-56
2021/03/28 06:40:09;;;;;;;11.50;4.20;;;5.50;99.90;;;;;;4999601;28;20708;-56
2021/03/28 06:43:10;;;;;;;16.63;4.50;;;5.40;99.90;;;;;;5003617;28;20972;-57
2021/03/28 06:46:10;;;;;;;10.30;4.23;;;5.60;99.90;;;;;;4985374;28;20668;-54
2021/03/28 06:49:20;;;;;;;11.67;4.93;;;5.60;99.90;;;;;;4993790;28;20327;-56
2021/03/28 06:52:30;;;;;;;15.90;5.07;;;5.60;99.90;;;;;;4989713;28;20280;-57
2021/03/28 06:55:33;;;;;;;11.37;4.50;;;5.70;99.90;;;;;;4989729;28;20610;-55
2021/03/28 06:58:59;;;;;;;12.17;4.87;;;5.60;99.90;;;;;;4994439;28;20336;-53
2021/03/28 07:02:19;;;;;;;12.90;4.47;;;5.70;99.90;;;;;;5001579;28;20522;-57
2021/03/28 07:05:24;;;;;;;19.87;5.10;;;5.80;99.90;;;;;;4972764;28;20968;-57
2021/03/28 07:08:06;;;;;;;11.60;4.77;;;5.80;99.90;;;;;;4987182;28;20236;-56
2021/03/28 07:10:43;;;;;;;18.17;4.77;;;5.90;99.90;;;;;;4989091;28;20479;-57
2021/03/28 07:13:38;;;;;;;13.67;5.03;;;5.90;99.90;;;;;;4995972;28;20243;-57
2021/03/28 07:16:30;;;;;;;14.03;4.70;;;5.90;99.90;;;;;;4990785;28;20271;-56
2021/03/28 07:19:39;;;;;;;12.47;5.03;;;5.90;99.90;;;;;;5008442;28;20244;-55
2021/03/28 07:22:31;;;;;;;14.30;4.60;;;6.00;99.90;;;;;;5008683;28;20504;-56
2021/03/28 07:25:55;;;;;;;14.83;4.63;;;6.10;99.90;;;;;;4982416;28;20242;-57
2021/03/28 07:29:41;;;;;;;11.77;4.97;;;6.10;99.90;;;;;;4992773;28;20759;-57
2021/03/28 07:32:52;;;;;;;14.43;5.30;;;6.20;99.90;;;;;;5003924;28;20261;-57
2021/03/28 07:35:41;;;;;;;10.50;5.13;;;6.30;99.90;;;;;;5007465;28;20323;-56
2021/03/28 07:38:49;;;;;;;13.57;4.97;;;6.30;99.90;;;;;;4980963;28;20266;-57
2021/03/28 07:42:12;;;;;;;13.57;4.67;;;6.40;99.90;;;;;;5001758;28;20407;-56
2021/03/28 07:45:28;;;;;;;13.23;4.83;;;6.40;99.90;;;;;;4957139;28;20239;-54
2021/03/28 07:48:48;;;;;;;11.17;4.57;;;6.50;99.90;;;;;;4977189;28;20884;-56
2021/03/28 07:52:15;;;;;;;10.97;4.87;;;6.70;99.90;;;;;;5013071;28;20237;-53
2021/03/28 07:55:19;;;;;;;13.57;4.97;;;6.90;99.90;;;;;;4996532;28;20706;-55
2021/03/28 07:58:29;;;;;;;15.27;5.03;;;7.00;99.90;;;;;;5006570;28;20255;-56
2021/03/28 08:01:19;;;;;;;18.07;5.37;;;7.20;99.90;;;;;;4994864;28;20247;-57
2021/03/28 08:04:13;;;;;;;14.77;5.20;;;7.60;99.90;;;;;;5006448;28;20590;-58
2021/03/28 08:07:05;;;;;;;13.63;4.77;;;8.00;99.90;;;;;;5002702;28;20766;-57
2021/03/28 08:09:54;;;;;;;12.47;4.37;;;8.40;99.90;;;;;;5005957;28;20256;-55
2021/03/28 08:13:01;;;;;;;14.60;5.20;;;8.70;99.90;;;;;;5000432;28;20628;-58
2021/03/28 08:15:57;;;;;;;13.53;4.83;;;9.00;99.90;;;;;;4979124;28;20260;-57
2021/03/28 08:18:34;;;;;;;10.73;4.70;;;9.20;99.90;;;;;;4992484;28;20319;-57
2021/03/28 08:21:27;;;;;;;13.83;4.90;;;9.20;99.90;;;;;;5006081;28;20240;-57
2021/03/28 08:24:30;;;;;;;15.17;5.33;;;9.30;99.90;;;;;;5006824;28;20248;-58
2021/03/28 08:28:09;;;;;;;9.67;4.53;;;9.00;99.90;;;;;;4972592;28;20718;-57
2021/03/28 08:31:12;;;;;;;10.33;4.13;;;8.90;99.90;;;;;;4988357;28;21480;-55
2021/03/28 08:34:36;;;;;;;11.53;4.60;;;8.80;99.90;;;;;;4997428;28;20237;-57
2021/03/28 08:37:56;;;;;;;13.27;4.07;;;8.80;99.90;;;;;;4990085;28;20238;-57
2021/03/28 08:40:55;;;;;;;12.73;4.37;;;8.90;99.90;;;;;;4986568;28;20249;-57
2021/03/28 08:44:09;;;;;;;11.43;4.27;;;9.00;99.90;;;;;;5009676;28;20241;-58
2021/03/28 08:47:11;;;;;;;14.60;4.50;;;8.90;99.90;;;;;;4991200;28;20263;-57
2021/03/28 08:49:50;;;;;;;10.27;4.23;;;8.90;99.90;;;;;;4990692;28;20245;-56
2021/03/28 08:53:07;;;;;;;12.50;4.30;;;9.10;99.90;;;;;;4987801;28;20261;-58
2021/03/28 08:56:25;;;;;;;11.20;4.40;;;9.40;99.90;;;;;;5005432;28;20235;-58
2021/03/28 08:58:56;;;;;;;10.27;4.53;;;10.10;99.90;;;;;;4989567;28;20248;-58
2021/03/28 09:01:46;;;;;;;17.97;5.57;;;10.40;99.90;;;;;;5002295;28;20236;-56
2021/03/28 09:04:35;;;;;;;11.07;3.90;;;10.70;99.90;;;;;;5006750;28;20242;-57
2021/03/28 09:07:14;;;;;;;10.03;3.83;;;10.90;99.90;;;;;;5011491;28;20628;-58
2021/03/28 09:10:16;;;;;;;9.73;3.87;;;11.00;99.90;;;;;;4995057;28;20259;-57
2021/03/28 09:12:56;;;;;;;11.23;3.83;;;11.20;99.90;;;;;;5004217;28;20283;-55
2021/03/28 09:16:02;;;;;;;10.60;4.27;;;11.50;99.90;;;;;;5009600;28;20242;-58
2021/03/28 09:18:47;;;;;;;9.87;3.43;;;11.50;99.90;;;;;;4976874;28;20243;-58
2021/03/28 09:21:31;;;;;;;9.73;3.93;;;11.70;99.90;;;;;;4989600;28;20250;-58
2021/03/28 09:24:28;;;;;;;10.03;3.90;;;11.70;99.90;;;;;;4987769;28;20250;-57
2021/03/28 09:27:28;;;;;;;8.90;3.50;;;11.50;99.90;;;;;;4969044;28;20274;-58
2021/03/28 09:30:25;;;;;;;10.13;3.37;;;11.60;99.90;;;;;;4978407;28;20235;-58
2021/03/28 09:33:19;;;;;;;11.20;3.20;;;11.60;99.90;;;;;;4997509;28;20330;-57
2021/03/28 09:36:14;;;;;;;12.43;3.30;;;11.30;99.90;;;;;;4997618;28;20246;-57
2021/03/28 09:39:20;;;;;;;13.67;3.60;;;11.20;99.90;;;;;;4997684;28;20641;-57
2021/03/28 09:42:37;;;;;;;9.23;3.20;;;11.10;99.90;;;;;;4998220;28;20329;-57
2021/03/28 09:45:49;;;;;;;9.57;3.40;;;11.20;99.90;;;;;;4998622;28;20268;-56
2021/03/28 09:48:43;;;;;;;8.47;3.13;;;11.10;99.90;;;;;;4996291;28;20254;-58
2021/03/28 09:51:59;;;;;;;9.43;3.53;;;11.00;99.90;;;;;;4986346;28;20247;-58
2021/03/28 09:55:17;;;;;;;11.07;3.43;;;11.00;99.90;;;;;;4942403;28;20305;-58
2021/03/28 09:58:41;;;;;;;6.47;2.50;;;11.40;99.90;;;;;;4986165;28;20345;-57
2021/03/28 10:01:24;;;;;;;8.57;2.80;;;11.50;99.90;;;;;;4996648;28;20614;-58
2021/03/28 10:03:57;;;;;;;10.17;3.20;;;11.40;99.90;;;;;;4997395;28;20267;-58
2021/03/28 10:06:29;;;;;;;8.53;2.97;;;11.50;99.90;;;;;;4995370;28;20902;-57
2021/03/28 10:09:05;;;;;;;8.93;2.97;;;11.60;99.90;;;;;;4997814;28;20250;-57
2021/03/28 10:11:41;;;;;;;9.93;2.90;;;11.80;99.90;;;;;;4969293;28;20295;-57
2021/03/28 10:14:40;;;;;;;12.47;3.93;;;11.90;99.90;;;;;;4976338;28;20338;-57
2021/03/28 10:17:39;;;;;;;10.87;3.27;;;12.00;99.90;;;;;;4976485;28;20252;-58
2021/03/28 10:21:09;;;;;;;8.80;2.80;;;11.90;99.90;;;;;;4984257;28;20299;-58
2021/03/28 10:23:51;;;;;;;8.80;2.70;;;11.80;99.90;;;;;;4994235;28;20867;-58
2021/03/28 10:26:48;;;;;;;8.83;3.00;;;11.80;99.90;;;;;;4976701;28;20616;-58
2021/03/28 10:29:41;;;;;;;10.50;3.07;;;11.80;99.90;;;;;;4976798;28;20251;-57
2021/03/28 10:32:27;;;;;;;8.37;2.50;;;11.80;99.90;;;;;;4990109;28;20615;-57
2021/03/28 10:35:17;;;;;;;8.53;2.73;;;11.60;99.90;;;;;;4983423;28;20574;-57
2021/03/28 10:38:09;;;;;;;7.33;2.50;;;11.50;99.90;;;;;;4994862;28;20821;-57
2021/03/28 10:40:44;;;;;;;7.43;2.60;;;11.50;99.90;;;;;;4995894;28;20239;-55
2021/03/28 10:43:44;;;;;;;7.83;2.80;;;11.60;99.90;;;;;;4996507;28;20747;-57
2021/03/28 10:46:59;;;;;;;9.60;2.63;;;11.60;99.90;;;;;;4965924;28;20240;-58
2021/03/28 10:50:22;;;;;;;8.87;2.70;;;11.60;99.90;;;;;;4985555;28;20249;-58
2021/03/28 10:53:47;;;;;;;12.47;3.03;;;11.60;99.90;;;;;;4993393;28;20429;-57
2021/03/28 10:57:03;;;;;;;7.13;2.70;;;11.60;99.90;;;;;;4982546;28;20243;-58
2021/03/28 11:00:23;;;;;;;10.07;3.03;;;11.80;99.90;;;;;;4959210;28;20325;-58
2021/03/28 11:03:44;;;;;;;10.10;3.20;;;11.80;99.90;;;;;;4975820;28;20786;-56
2021/03/28 11:06:51;;;;;;;11.17;2.83;;;11.80;99.90;;;;;;4980129;28;20327;-57
2021/03/28 11:10:10;;;;;;;5.40;2.67;;;11.80;99.90;;;;;;4965673;28;20257;-58
2021/03/28 11:13:13;;;;;;;10.83;2.83;;;11.80;99.90;;;;;;4956324;28;20957;-57
2021/03/28 11:16:09;;;;;;;6.40;2.83;;;11.90;99.90;;;;;;4986391;28;20233;-58
2021/03/28 11:19:46;;;;;;;5.93;2.47;;;12.10;99.90;;;;;;4979780;28;20448;-56
2021/03/28 11:22:23;;;;;;;10.47;2.87;;;12.10;99.90;;;;;;4978323;28;20245;-57
2021/03/28 11:25:05;;;;;;;7.33;2.80;;;11.80;99.90;;;;;;4993199;28;20259;-58
2021/03/28 11:28:12;;;;;;;8.47;2.53;;;11.90;99.90;;;;;;4988561;28;20247;-59
2021/03/28 11:30:42;;;;;;;6.70;2.60;;;12.10;99.90;;;;;;4986957;28;20262;-58
2021/03/28 11:33:27;;;;;;;10.23;2.80;;;12.30;99.90;;;;;;4987581;28;20327;-57
2021/03/28 11:36:17;;;;;;;10.43;3.33;;;12.40;99.90;;;;;;4984487;28;21041;-61
2021/03/28 11:39:20;;;;;;;9.17;3.17;;;12.40;99.90;;;;;;4983414;28;20233;-60
2021/03/28 11:42:20;;;;;;;8.23;3.30;;;12.40;99.90;;;;;;4981021;28;20246;-61
2021/03/28 11:45:34;;;;;;;9.47;2.70;;;12.40;99.90;;;;;;4988290;28;20330;-60
2021/03/28 11:48:27;;;;;;;10.57;3.27;;;12.20;99.90;;;;;;4978707;28;20244;-61
2021/03/28 11:50:59;;;;;;;8.03;3.17;;;12.00;99.90;;;;;;4986615;28;20289;-61
2021/03/28 11:53:36;;;;;;;9.47;3.33;;;11.90;99.90;;;;;;4986460;28;20290;-61
2021/03/28 11:56:37;;;;;;;7.77;3.00;;;11.90;99.90;;;;;;4988421;28;20240;-61
2021/03/28 11:59:10;;;;;;;7.87;4.07;;;12.00;99.90;;;;;;4968945;28;20329;-59
2021/03/28 12:02:23;;;;;;;10.37;3.50;;;11.90;99.90;;;;;;4984703;28;20331;-61
2021/03/28 12:05:09;;;;;;;10.90;3.63;;;11.80;99.90;;;;;;4990639;28;20243;-60
2021/03/28 12:07:40;;;;;;;12.03;3.10;;;11.60;99.90;;;;;;4993415;28;20235;-61
2021/03/28 12:10:31;;;;;;;8.43;2.97;;;11.40;99.90;;;;;;4995751;28;20248;-61
2021/03/28 12:13:26;;;;;;;7.77;2.80;;;11.30;99.90;;;;;;4997058;28;20246;-60
2021/03/28 12:16:02;;;;;;;8.63;3.00;;;11.10;99.90;;;;;;4995434;28;20244;-60
2021/03/28 12:18:44;;;;;;;10.00;2.90;;;11.10;99.90;;;;;;4995548;28;20270;-61
2021/03/28 12:21:53;;;;;;;6.20;2.40;;;11.10;99.90;;;;;;4995245;28;20251;-61
2021/03/28 12:24:26;;;;;;;5.70;2.70;;;11.00;99.90;;;;;;4995072;28;20723;-60
2021/03/28 12:27:02;;;;;;;7.23;2.80;;;10.90;99.90;;;;;;4992964;28;20674;-61
2021/03/28 12:29:40;;;;;;;7.67;2.70;;;10.80;99.90;;;;;;4994289;28;20320;-59
2021/03/28 12:32:58;;;;;;;9.73;2.87;;;10.70;99.90;;;;;;4991149;28;20243;-61
2021/03/28 12:35:36;;;;;;;9.77;3.27;;;10.80;99.90;;;;;;4990037;28;20243;-60
2021/03/28 12:38:26;;;;;;;9.80;3.20;;;10.70;99.90;;;;;;4978972;28;20240;-60
2021/03/28 12:41:19;;;;;;;9.17;3.83;;;10.70;99.90;;;;;;4976894;28;20810;-60
2021/03/28 12:43:51;;;;;;;9.60;2.87;;;10.60;99.90;;;;;;4984409;28;20255;-61
2021/03/28 12:46:48;;;;;;;9.97;3.20;;;10.70;99.90;;;;;;4981621;28;20711;-61
2021/03/28 12:49:20;;;;;;;13.47;3.00;;;10.70;99.90;;;;;;4981814;28;20322;-61
2021/03/28 12:52:01;;;;;;;7.90;3.13;;;10.70;99.90;;;;;;4987003;28;20237;-58
2021/03/28 12:54:52;;;;;;;8.03;2.90;;;10.70;99.90;;;;;;4985862;28;20244;-60
2021/03/28 12:57:29;;;;;;;9.80;3.10;;;10.70;99.90;;;;;;4980284;28;20253;-57
2021/03/28 13:00:00;;;;;;;5.97;2.90;;;10.70;99.90;;;;;;5004321;28;20306;-58
2021/03/28 13:02:35;;;;;;;9.53;3.20;;;10.80;99.90;;;;;;4992839;28;21005;-58
2021/03/28 13:05:07;;;;;;;7.27;3.03;;;10.70;99.90;;;;;;4996727;28;20242;-57
2021/03/28 13:07:41;;;;;;;8.67;3.43;;;10.70;99.90;;;;;;4995539;28;20316;-56
2021/03/28 13:10:22;;;;;;;8.13;3.00;;;10.60;99.90;;;;;;4993466;28;20656;-58
2021/03/28 13:12:58;;;;;;;6.77;3.27;;;10.50;99.90;;;;;;4995995;28;20315;-58
2021/03/28 13:15:36;;;;;;;8.40;3.30;;;10.60;99.90;;;;;;5004604;28;20257;-58
2021/03/28 13:18:16;;;;;;;8.30;3.43;;;10.50;99.90;;;;;;4995821;28;20254;-57
2021/03/28 13:20:48;;;;;;;8.43;3.53;;;10.50;99.90;;;;;;4998235;28;20331;-56
2021/03/28 13:23:24;;;;;;;6.03;3.50;;;10.50;99.90;;;;;;4998357;28;20242;-56
2021/03/28 13:26:25;;;;;;;8.70;3.90;;;10.50;99.90;;;;;;4998334;28;20241;-57
2021/03/28 13:29:02;;;;;;;7.80;3.57;;;10.50;99.90;;;;;;4974873;28;20317;-56
2021/03/28 13:31:41;;;;;;;8.60;3.93;;;10.50;99.90;;;;;;4989873;28;20242;-56
2021/03/28 13:34:33;;;;;;;8.60;3.50;;;10.50;99.90;;;;;;4983226;28;20608;-55
2021/03/28 13:37:08;;;;;;;6.87;3.53;;;10.50;99.90;;;;;;4997178;28;20695;-58
2021/03/28 13:39:40;;;;;;;11.90;4.03;;;10.60;99.90;;;;;;4986897;28;20245;-56
2021/03/28 13:42:21;;;;;;;8.90;3.37;;;10.50;99.90;;;;;;4995691;28;20329;-57
2021/03/28 13:45:00;;;;;;;7.77;3.93;;;10.50;99.90;;;;;;4989517;28;20235;-58
2021/03/28 13:47:47;;;;;;;10.13;3.50;;;10.60;99.90;;;;;;4991909;28;20846;-55
2021/03/28 13:50:40;;;;;;;11.60;3.70;;;10.50;99.90;;;;;;4985730;28;20564;-54
2021/03/28 13:53:27;;;;;;;8.23;3.87;;;10.50;99.90;;;;;;4987739;28;21059;-56
2021/03/28 13:56:29;;;;;;;10.10;3.70;;;10.50;99.90;;;;;;4993442;28;20230;-57
2021/03/28 13:59:20;;;;;;;7.20;3.40;;;10.50;99.90;;;;;;4986226;28;20714;-57
2021/03/28 14:01:57;;;;;;;6.30;3.57;;;10.50;99.90;;;;;;4988048;28;20291;-57
2021/03/28 14:04:32;;;;;;;13.57;4.23;;;10.50;99.90;;;;;;4983702;28;20325;-56
2021/03/28 14:07:20;;;;;;;9.43;3.60;;;10.60;99.90;;;;;;4988481;28;20249;-57
2021/03/28 14:09:55;;;;;;;9.23;4.17;;;10.60;99.90;;;;;;4997600;28;20307;-56
2021/03/28 14:12:33;;;;;;;11.43;4.03;;;10.50;99.90;;;;;;4981627;28;20246;-55
2021/03/28 14:15:35;;;;;;;9.10;3.73;;;10.50;99.90;;;;;;4985017;28;20239;-58
2021/03/28 14:18:23;;;;;;;11.13;4.63;;;10.50;99.90;;;;;;5000234;28;20262;-58
2021/03/28 14:21:09;;;;;;;10.17;4.07;;;10.50;99.90;;;;;;4992572;28;20231;-59
2021/03/28 14:23:45;;;;;;;13.20;4.50;;;10.50;99.90;;;;;;4999882;28;20437;-60
2021/03/28 14:26:27;;;;;;;13.43;4.50;;;10.40;99.90;;;;;;5003619;28;20267;-53
2021/03/28 14:28:54;;;;;;;8.03;3.77;;;10.40;99.90;;;;;;5006448;28;20647;-57
2021/03/28 14:31:38;;;;;;;9.90;4.37;;;10.40;99.90;;;;;;5005145;28;20703;-56
2021/03/28 14:34:53;;;;;;;12.50;3.63;;;10.40;99.90;;;;;;5008893;28;20877;-52
2021/03/28 14:38:18;;;;;;;8.13;4.03;;;10.50;99.90;;;;;;5010933;28;20245;-53
2021/03/28 14:41:03;;;;;;;6.93;3.70;;;10.50;99.90;;;;;;4981768;28;20722;-52
2021/03/28 14:44:29;;;;;;;11.90;4.00;;;10.50;99.90;;;;;;5006042;28;20247;-53
2021/03/28 14:47:03;;;;;;;13.43;3.90;;;10.40;99.90;;;;;;4994246;28;20671;-55
2021/03/28 14:49:44;;;;;;;9.73;3.90;;;10.20;99.90;;;;;;4997009;28;20591;-53
2021/03/28 14:52:40;;;;;;;9.73;3.90;;;10.30;99.90;;;;;;5004182;28;20337;-54
2021/03/28 14:55:23;;;;;;;8.23;3.87;;;10.20;99.90;;;;;;4986751;28;20723;-53
2021/03/28 14:58:08;;;;;;;11.03;4.23;;;10.10;99.90;;;;;;4982818;28;20244;-54
2021/03/28 15:00:39;;;;;;;8.00;3.73;;;10.10;99.90;;;;;;4991958;28;20293;-55
2021/03/28 15:04:02;;;;;;;8.97;3.93;;;10.10;99.90;;;;;;5008029;28;20300;-54
2021/03/28 15:06:56;;;;;;;12.00;4.90;;;10.10;99.90;;;;;;4964333;28;20239;-57